Terminal Aerodrome Forecast
Issued by NWS

Home | Current Version | Previous Version | Graphics & Text | Print | Product List | Glossary On
Versions: 1 2 3 4 5 6 7 8 9 10 11 12
572
FTUS43 KUNR 211120
TAFGCC
TAF
KGCC 211120Z 2112/2212 VRB04KT P6SM BKN150
     FM211400 34015G25KT P6SM SKC
     FM211800 36012KT P6SM SCT150
     FM220100 03008KT P6SM SCT080=

USA.gov is the U.S. government's official web portal to all federal, state and local government web resources and services.